Weather observations for the past three days for
Laughlin Air Force Base Auxiliary Airfield
Metric (Imperial)
Date Time (cdt) Wind (kph) Vis. (km) Weather Sky Cond. Temperature (ºC) Relative Humidity Wind Chill (°C) Heat Index (°C) Pressure Precipitation (cm)
Air Dwpt 6 hour altimeter (cm) sea level (mb) 1 hr 3 hr 6 hr
Max. Min.
06 05:55 SE 15 16.09 Fair CLR 25.4 20.6 75% 27 75.84 1009.7
06 04:55 E 11 16.09 Fair CLR 24.9 20.3 76% 26 75.77 1008.6
06 03:55 E 9 16.09 Fair CLR 26 20.8 73% 27 75.74 1008.2
06 02:55 E 9 16.09 Fair CLR 26.5 20.8 71% 28 75.79 1008.9
06 01:55 E 11 16.09 Fair CLR 27.2 19.8 64% 29 75.84 1009.6
06 00:55 SE 11 16.09 Fair CLR 28.4 19.9 33.9 28.4 60% 30 75.84 1009.6
05 23:55 SE 6 16.09 Fair CLR 29.3 19.9 57% 31 75.82 1009.3
05 22:55 S 11 16.09 Fair CLR 30.7 20.3 54% 33 75.84 1009.6
05 20:55 E 17 16.09 Fair CLR 31.2 20.4 53% 34 75.69 1007.6
05 19:55 NE 17 16.09 Fair CLR 32 20.9 52% 35 75.62 1006.7
05 17:55 E 28 16.09 Thunderstorm in Vicinity CLR 36 20.6 41% 39 75.62 1006.6
05 16:55 SE 22 16.09 Thunderstorm in Vicinity NULL 37.7 19.1 34% 40 75.59 1006.1
05 15:55 SE 24 G 37 16.09 Fair CLR 37.3 19.7 36% 40 75.64 1006.8
05 14:55 E 22 G 33 16.09 Fair CLR 36.5 19.8 38% 39 75.72 1007.8
05 11:55 SE 20 G 30 16.09 Fair CLR 32.2 22.6 57% 37 75.95 1011.0
05 10:55 SE 17 16.09 Mostly Cloudy BKN022 30.4 22.8 64% 34 75.97 1011.3
05 09:55 E 22 16.09 Fair CLR 29.9 23.3 68% 34 75.97 1011.3
05 08:55 E 20 16.09 Fair CLR 27.9 23 75% 31 75.95 1011.0
05 07:55 E 17 16.09 Fair CLR 26.4 22.6 80% 28 75.87 1010.0
05 05:55 E 19 16.09 Fair CLR 26.9 21.8 74% 29 75.82 1009.2
05 04:55 E 15 16.09 Fair CLR 27.6 21.1 68% 30 75.84 1009.5
05 03:55 E 17 16.09 Fair CLR 28.3 21.3 66% 31 75.82 1009.2
05 02:55 E 17 16.09 Fair CLR 29 20.1 59% 31 75.82 1009.2
05 01:55 E 13 16.09 Fair CLR 29.2 20.1 58% 31 75.82 1009.2
05 00:55 E 20 16.09 Mostly Cloudy BKN200 30.3 19.9 36.5 30.3 54% 32 75.79 1008.9
04 23:55 E 22 16.09 Mostly Cloudy BKN200 31.3 19.9 51% 33 75.84 1009.6
04 22:55 E 19 16.09 Partly Cloudy SCT170 32.5 20 48% 35 75.84 1009.6
04 21:55 E 20 16.09 A Few Clouds FEW170 33.3 19.3 44% 35 75.82 1009.3
04 20:55 E 24 16.09 Fair CLR 34.4 19.2 41% 36 75.72 1007.9
04 19:55 E 17 16.09 Fair CLR 35.5 19 38% 37 75.69 1007.6
04 18:55 E 28 16.09 Fair CLR 36.6 19.1 38.3 33.6 36% 39 75.67 1007.2
04 17:55 SE 20 16.09 Fair CLR 38.1 18 31% 40 75.64 1006.9
04 16:55 E 26 G 41 16.09 Fair CLR 37.7 19.6 35% 41 75.62 1006.5
04 15:55 SE 20 G 31 16.09 Fair CLR 36.7 21.6 42% 41 75.72 1007.8
04 14:55 SE 22 G 35 16.09 Fair CLR 35.4 22.7 48% 41 75.77 1008.6
04 13:55 SE 28 16.09 Fair CLR 34.9 22.5 49% 40 75.82 1009.2
04 12:55 SE 20 16.09 Fair CLR 33.9 22.6 33.9 26.1 52% 39 75.9 1010.2
04 11:55 SE 20 16.09 A Few Clouds FEW028 32.3 22.6 57% 37 75.92 1010.6
04 10:55 E 24 16.09 Mostly Cloudy BKN023 30.8 22.9 63% 35 75.92 1010.6
04 09:55 SE 15 16.09 Mostly Cloudy BKN018 29.6 23 68% 34 75.92 1010.6
04 08:55 E 24 16.09 Fair CLR 27.9 23.2 76% 31 75.9 1010.3
04 07:55 E 20 16.09 Fair CLR 26.3 23.1 83% 28 75.84 1009.6
04 06:55 E 17 16.09 Fair CLR 26.4 23 31.4 26.2 82% 29 75.82 1009.2
04 05:55 E 15 16.09 Fair CLR 27 23 79% 30 75.82 1009.2
04 04:55 E 15 16.09 Fair CLR 27.5 22.6 75% 30 75.79 1008.8
04 03:55 E 19 16.09 Fair CLR 28.2 22.6 72% 31 75.79 1008.8
04 02:55 E 19 16.09 Fair CLR 29.1 22.8 69% 33 75.79 1008.8
04 01:55 SE 24 16.09 Fair CLR 30.3 22.4 63% 34 75.79 1008.8
04 00:55 E 31 16.09 Fair CLR 31.4 21.5 39.1 31.4 56% 35 75.77 1008.5
03 23:55 SE 24 16.09 Fair CLR 32.5 20.4 49% 35 75.74 1008.2
03 22:55 E 22 G 35 16.09 Fair CLR 33.3 16.2 36% 33 75.69 1007.5
03 21:55 E 19 16.09 Fair CLR 34.3 16.1 34% 34 75.62 1006.5
03 20:55 E 17 16.09 Fair CLR 35.1 16.4 33% 35 75.57 1005.8
03 19:55 E 13 16.09 Fair CLR 37.1 14.4 26% 37 75.51 1005.2
03 18:55 E 20 16.09 Fair CLR 39.2 14.9 40.3 35.2 24% 39 75.51 1005.1
03 17:55 E 20 16.09 Fair CLR 39.9 14.8 23% 40 75.49 1004.7
03 16:55 E 19 G 30 16.09 Fair CLR 39.7 17.1 26% 41 75.51 1005.1
03 15:55 E 15 16.09 A Few Clouds FEW075 40.1 16.9 26% 41 75.57 1005.7
03 14:55 S 20 16.09 Fair CLR 39.3 19 31% 42 75.64 1006.7
03 13:55 SE 15 16.09 Fair CLR 37.7 20.9 38% 42 75.72 1007.8
03 12:55 SE 15 16.09 Fair CLR 35.1 22 35.3 26.4 47% 40 75.82 1009.2
03 11:55 SE 15 16.09 Fair CLR 33.3 22.7 54% 38 75.9 1010.3
03 10:55 SE 19 16.09 Fair CLR 31.2 23 62% 36 75.9 1010.3
03 09:55 SE 24 16.09 Fair CLR 29.6 23 68% 34 75.92 1010.6
03 08:55 E 24 16.09 Fair CLR 28.1 23 74% 31 75.92 1010.7
03 07:55 E 15 16.09 Fair CLR 26.5 22.5 79% 29 75.87 1009.9
03 06:55 E 17 16.09 Fair CLR 26.9 22.3 30.9 26.9 76% 29 75.84 1009.5
Date Time (cdt) Wind (kph) Vis. (km) Weather Sky Cond. Air Dwpt Max. Min. Relative Humidity Wind Chill (°C) Heat Index (°C) altimeter (cm) sea level (mb) 1 hr 3 hr 6 hr
6 hour
Temperature (ºC) Pressure Precipitation (cm)